Terminal Aerodrome Forecast
Issued by NWS Wichita, KS

Home | Current Version | Previous Version | Graphics & Text | Print | Product List | Glossary On
Versions: 1 2 3 4 5 6 7 8 9 10 11 12 13 14 15 16 17 18 19 20 21 22
000
FTUS43 KICT 290500
TAFICT
TAF
KICT 290520Z 2906/3006 16010KT P6SM VCTS SCT060CB OVC090
      TEMPO 2906/2910 VRB15G30KT 3SM TSRA
     FM291000 18006KT P6SM VCTS SCT050CB BKN080
     FM291800 21014KT P6SM OVC100
     FM300000 16012KT P6SM OVC100=

USA.gov is the U.S. government's official web portal to all federal, state and local government web resources and services.